MAPA DE AEROPUERTO

INFORMACIÓN METAR y TAF

METAR FOR LEVT
ADDS - METARS form results

(0935 UTC 29 January 2022)
Data provider http://aviationweather.gov/metar/data/
 
METAR text: LEVT 290930Z VRB01KT 3000 BR OVC003 01/01 Q1036
Conditions at: LEVT (VITORIA , ES) observed 0930 UTC 29 January 2022
Temperature: 1.0°C (34°F)
Dewpoint: 1.0°C (34°F) [RH = 100%]
Pressure (altimeter): 30.59 inches Hg (1036.0 mb)
Winds: variable direction winds at 1 MPH (1 knots; 0.5 m/s)
Visibility: 1.86 miles (2.99 km)
Ceiling: 300 feet AGL
Clouds: overcast cloud deck at 300 feet AGL
Weather: BR  (mist)

METAR text: LEVT 290900Z 00000KT 3000 BR BCFG OVC002 01/01 Q1036
Conditions at: LEVT (VITORIA , ES) observed 0900 UTC 29 January 2022
Temperature: 1.0°C (34°F)
Dewpoint: 1.0°C (34°F) [RH = 100%]
Pressure (altimeter): 30.59 inches Hg (1036.0 mb)
Winds: calm
Visibility: 1.86 miles (2.99 km)
Ceiling: 200 feet AGL
Clouds: overcast cloud deck at 200 feet AGL
Weather: BR BCFG  (mist, patches of fog)

Forecast for: LEVT (VITORIA , ES)
Text: TAF LEVT 290500Z 2906/3006 VRB05KT 9999 FEW015 TX12/2914Z TNM03/3005Z
Forecast period: 0600 UTC 29 January 2022 to 0600 UTC 30 January 2022
Forecast type: FROM: standard forecast or significant change
Winds: variable direction winds at 6 MPH (5 knots; 2.6 m/s)
Visibility: 6 or more miles (10+ km)
Ceiling: at least 12,000 feet AGL
Clouds: few clouds at 1500 feet AGL
Weather: no significant weather forecast for this period
Text: TEMPO 2906/2911 3000 BR BCFG BKN010
Forecast period: 0600 to 1100 UTC 29 January 2022
Forecast type: TEMPORARY: The following changes expected for less than half the time period
Visibility: 1.86 miles (2.99 km)
Ceiling: 1000 feet AGL
Clouds: broken clouds at 1000 feet AGL
Weather: BR BCFG  (mist, patches of fog)
Text: TEMPO 2906/2910 0800 BCFG BKN003
Forecast period: 0600 to 1000 UTC 29 January 2022
Forecast type: TEMPORARY: The following changes expected for less than half the time period
Visibility: 0.50 miles (0.80 km)
Ceiling: 300 feet AGL
Clouds: broken clouds at 300 feet AGL
Weather: BCFG  (patches of fog)
Text: TEMPO 2906/2907 0350 FZFG BCFG VV001
Forecast period: 0600 to 0700 UTC 29 January 2022
Forecast type: TEMPORARY: The following changes expected for less than half the time period
Visibility: 0.22 miles (0.35 km)
Ceiling: indefinite ceiling with vertical visibility of 100 feet AGL
Clouds: obscured sky
Weather: FZFG BCFG  (freezing fog, patches of fog)